sensor_id;sensor_type;location;lat;lon;timestamp;pressure;altitude;pressure_sealevel;temperature;humidity
42003;BME280;27693;50.506;30.832;2023-04-22T00:00:06;99119.82;;;8.46;75.62
42003;BME280;27693;50.506;30.832;2023-04-22T00:01:10;99127.64;;;8.44;75.71
42003;BME280;27693;50.506;30.832;2023-04-22T00:02:14;99125.73;;;8.50;75.72
42003;BME280;27693;50.506;30.832;2023-04-22T00:03:18;99133.64;;;8.46;75.55
42003;BME280;27693;50.506;30.832;2023-04-22T00:04:21;99126.89;;;8.42;75.67
42003;BME280;27693;50.506;30.832;2023-04-22T00:05:24;99120.73;;;8.45;75.76
42003;BME280;27693;50.506;30.832;2023-04-22T00:06:27;99126.73;;;8.45;75.70
42003;BME280;27693;50.506;30.832;2023-04-22T00:07:29;99119.25;;;8.39;75.81
42003;BME280;27693;50.506;30.832;2023-04-22T00:08:31;99125.42;;;8.37;75.80
42003;BME280;27693;50.506;30.832;2023-04-22T00:09:33;99118.75;;;8.31;75.96
42003;BME280;27693;50.506;30.832;2023-04-22T00:10:36;99121.63;;;8.25;76.00
42003;BME280;27693;50.506;30.832;2023-04-22T00:11:38;99115.42;;;8.29;76.10
42003;BME280;27693;50.506;30.832;2023-04-22T00:12:40;99123.89;;;8.33;75.94
42003;BME280;27693;50.506;30.832;2023-04-22T00:13:43;99117.85;;;8.32;75.89
42003;BME280;27693;50.506;30.832;2023-04-22T00:14:46;99120.81;;;8.24;76.09
42003;BME280;27693;50.506;30.832;2023-04-22T00:15:50;99119.95;;;8.24;76.10
42003;BME280;27693;50.506;30.832;2023-04-22T00:16:53;99119.82;;;8.27;76.14
42003;BME280;27693;50.506;30.832;2023-04-22T00:17:56;99123.94;;;8.31;76.00
42003;BME280;27693;50.506;30.832;2023-04-22T00:18:59;99122.00;;;8.36;76.00
42003;BME280;27693;50.506;30.832;2023-04-22T00:20:01;99127.93;;;8.38;75.75
42003;BME280;27693;50.506;30.832;2023-04-22T00:21:05;99119.53;;;8.33;75.74
42003;BME280;27693;50.506;30.832;2023-04-22T00:22:09;99117.10;;;8.30;75.89
42003;BME280;27693;50.506;30.832;2023-04-22T00:23:12;99119.95;;;8.24;76.13
42003;BME280;27693;50.506;30.832;2023-04-22T00:24:16;99125.83;;;8.27;76.09
42003;BME280;27693;50.506;30.832;2023-04-22T00:25:18;99122.75;;;8.38;76.35
42003;BME280;27693;50.506;30.832;2023-04-22T00:26:21;99128.09;;;8.35;75.94
42003;BME280;27693;50.506;30.832;2023-04-22T00:27:24;99126.53;;;8.31;76.04
42003;BME280;27693;50.506;30.832;2023-04-22T00:28:27;99126.11;;;8.21;76.16
42003;BME280;27693;50.506;30.832;2023-04-22T00:29:29;99124.95;;;8.09;76.68
42003;BME280;27693;50.506;30.832;2023-04-22T00:30:31;99138.73;;;8.10;76.65
42003;BME280;27693;50.506;30.832;2023-04-22T00:31:34;99128.48;;;8.07;76.81
42003;BME280;27693;50.506;30.832;2023-04-22T00:32:37;99135.43;;;8.06;76.71
42003;BME280;27693;50.506;30.832;2023-04-22T00:33:41;99139.13;;;8.00;76.83
42003;BME280;27693;50.506;30.832;2023-04-22T00:34:43;99132.06;;;8.04;76.97
42003;BME280;27693;50.506;30.832;2023-04-22T00:35:45;99133.13;;;8.00;77.08
42003;BME280;27693;50.506;30.832;2023-04-22T00:36:48;99136.48;;;8.02;77.09
42003;BME280;27693;50.506;30.832;2023-04-22T00:37:52;99134.66;;;8.04;77.08
42003;BME280;27693;50.506;30.832;2023-04-22T00:38:54;99143.48;;;8.00;77.17
42003;BME280;27693;50.506;30.832;2023-04-22T00:39:57;99147.95;;;7.96;77.35
42003;BME280;27693;50.506;30.832;2023-04-22T00:41:01;99139.98;;;8.01;77.36
42003;BME280;27693;50.506;30.832;2023-04-22T00:42:07;99139.55;;;7.91;77.53
42003;BME280;27693;50.506;30.832;2023-04-22T00:43:12;99139.41;;;7.94;77.73
42003;BME280;27693;50.506;30.832;2023-04-22T00:44:14;99135.75;;;7.79;78.01
42003;BME280;27693;50.506;30.832;2023-04-22T00:45:17;99129.98;;;7.73;78.46
42003;BME280;27693;50.506;30.832;2023-04-22T00:46:20;99138.53;;;7.75;78.41
42003;BME280;27693;50.506;30.832;2023-04-22T00:47:23;99138.34;;;7.79;78.33
42003;BME280;27693;50.506;30.832;2023-04-22T00:48:28;99133.63;;;7.68;78.45
42003;BME280;27693;50.506;30.832;2023-04-22T00:49:31;99145.86;;;7.65;78.32
42003;BME280;27693;50.506;30.832;2023-04-22T00:50:33;99141.84;;;7.58;78.53
42003;BME280;27693;50.506;30.832;2023-04-22T00:51:35;99149.09;;;7.49;78.72
42003;BME280;27693;50.506;30.832;2023-04-22T00:52:38;99142.23;;;7.48;78.97
42003;BME280;27693;50.506;30.832;2023-04-22T00:53:40;99145.75;;;7.47;79.22
42003;BME280;27693;50.506;30.832;2023-04-22T00:54:43;99144.89;;;7.47;79.24
42003;BME280;27693;50.506;30.832;2023-04-22T00:55:46;99146.84;;;7.42;79.53
42003;BME280;27693;50.506;30.832;2023-04-22T00:56:49;99139.16;;;7.40;79.60
42003;BME280;27693;50.506;30.832;2023-04-22T00:57:53;99148.64;;;7.40;79.78
42003;BME280;27693;50.506;30.832;2023-04-22T00:58:56;99144.33;;;7.40;79.85
42003;BME280;27693;50.506;30.832;2023-04-22T00:59:59;99143.61;;;7.37;79.74
42003;BME280;27693;50.506;30.832;2023-04-22T01:01:02;99141.06;;;7.35;79.78
42003;BME280;27693;50.506;30.832;2023-04-22T01:02:05;99144.59;;;7.34;79.92
42003;BME280;27693;50.506;30.832;2023-04-22T01:03:08;99146.39;;;7.32;79.87
42003;BME280;27693;50.506;30.832;2023-04-22T01:04:11;99141.33;;;7.29;79.90
42003;BME280;27693;50.506;30.832;2023-04-22T01:05:15;99139.64;;;7.28;79.88
42003;BME280;27693;50.506;30.832;2023-04-22T01:06:18;99147.55;;;7.25;79.76
42003;BME280;27693;50.506;30.832;2023-04-22T01:07:23;99144.70;;;7.31;79.62
42003;BME280;27693;50.506;30.832;2023-04-22T01:08:27;99144.70;;;7.31;79.63
42003;BME280;27693;50.506;30.832;2023-04-22T01:09:33;99138.55;;;7.33;79.11
42003;BME280;27693;50.506;30.832;2023-04-22T01:10:37;99144.33;;;7.40;78.87
42003;BME280;27693;50.506;30.832;2023-04-22T01:11:41;99136.03;;;7.32;78.64
42003;BME280;27693;50.506;30.832;2023-04-22T01:12:44;99144.81;;;7.28;78.66
42003;BME280;27693;50.506;30.832;2023-04-22T01:13:47;99146.50;;;7.29;78.64
42003;BME280;27693;50.506;30.832;2023-04-22T01:14:49;99143.88;;;7.30;78.64
42003;BME280;27693;50.506;30.832;2023-04-22T01:15:52;99143.16;;;7.27;78.52
42003;BME280;27693;50.506;30.832;2023-04-22T01:16:55;99145.67;;;7.28;78.33
42003;BME280;27693;50.506;30.832;2023-04-22T01:17:59;99136.30;;;7.26;78.05
42003;BME280;27693;50.506;30.832;2023-04-22T01:19:04;99140.30;;;7.12;78.15
42003;BME280;27693;50.506;30.832;2023-04-22T01:20:08;99146.22;;;7.14;78.35
42003;BME280;27693;50.506;30.832;2023-04-22T01:21:11;99141.13;;;7.13;78.05
42003;BME280;27693;50.506;30.832;2023-04-22T01:22:14;99144.35;;;7.18;77.89
42003;BME280;27693;50.506;30.832;2023-04-22T01:23:21;99136.55;;;7.19;77.39
42003;BME280;27693;50.506;30.832;2023-04-22T01:24:23;99146.64;;;7.26;77.29
42003;BME280;27693;50.506;30.832;2023-04-22T01:25:27;99139.89;;;7.22;76.64
42003;BME280;27693;50.506;30.832;2023-04-22T01:26:30;99139.18;;;7.18;76.54
42003;BME280;27693;50.506;30.832;2023-04-22T01:27:34;99142.98;;;7.09;76.48
42003;BME280;27693;50.506;30.832;2023-04-22T01:28:37;99144.14;;;7.02;76.79
42003;BME280;27693;50.506;30.832;2023-04-22T01:29:40;99139.83;;;7.02;77.08
42003;BME280;27693;50.506;30.832;2023-04-22T01:30:44;99139.83;;;7.02;77.08
42003;BME280;27693;50.506;30.832;2023-04-22T01:31:47;99145.83;;;7.03;77.11
42003;BME280;27693;50.506;30.832;2023-04-22T01:32:49;99139.83;;;7.02;77.06
42003;BME280;27693;50.506;30.832;2023-04-22T01:33:54;99142.20;;;7.07;77.08
42003;BME280;27693;50.506;30.832;2023-04-22T01:34:57;99146.44;;;7.10;76.91
42003;BME280;27693;50.506;30.832;2023-04-22T01:36:00;99140.16;;;7.15;76.70
42003;BME280;27693;50.506;30.832;2023-04-22T01:37:02;99135.13;;;7.12;76.50
42003;BME280;27693;50.506;30.832;2023-04-22T01:38:07;99143.63;;;7.14;76.47
42003;BME280;27693;50.506;30.832;2023-04-22T01:39:10;99142.70;;;7.17;76.61
42003;BME280;27693;50.506;30.832;2023-04-22T01:40:15;99145.47;;;7.12;76.34
42003;BME280;27693;50.506;30.832;2023-04-22T01:41:19;99140.16;;;7.15;76.37
42003;BME280;27693;50.506;30.832;2023-04-22T01:42:22;99138.86;;;7.05;76.35
42003;BME280;27693;50.506;30.832;2023-04-22T01:43:25;99142.59;;;6.98;76.79
42003;BME280;27693;50.506;30.832;2023-04-22T01:44:28;99143.13;;;7.06;76.75
42003;BME280;27693;50.506;30.832;2023-04-22T01:45:30;99138.72;;;7.08;76.60
42003;BME280;27693;50.506;30.832;2023-04-22T01:46:33;99139.61;;;7.07;76.25
42003;BME280;27693;50.506;30.832;2023-04-22T01:47:38;99137.53;;;6.95;76.33
42003;BME280;27693;50.506;30.832;2023-04-22T01:48:40;99138.75;;;6.86;76.48
42003;BME280;27693;50.506;30.832;2023-04-22T01:49:43;99148.84;;;6.92;76.64
42003;BME280;27693;50.506;30.832;2023-04-22T01:50:47;99142.88;;;6.90;76.48
42003;BME280;27693;50.506;30.832;2023-04-22T01:51:49;99140.08;;;6.96;76.45
42003;BME280;27693;50.506;30.832;2023-04-22T01:52:52;99139.22;;;6.96;76.25
42003;BME280;27693;50.506;30.832;2023-04-22T01:53:56;99138.75;;;6.86;76.19
42003;BME280;27693;50.506;30.832;2023-04-22T01:54:59;99140.50;;;6.85;76.08
42003;BME280;27693;50.506;30.832;2023-04-22T01:56:04;99141.16;;;6.91;75.53
42003;BME280;27693;50.506;30.832;2023-04-22T01:57:10;99144.64;;;6.90;75.71
42003;BME280;27693;50.506;30.832;2023-04-22T01:58:14;99143.67;;;6.92;75.80
42003;BME280;27693;50.506;30.832;2023-04-22T01:59:19;99153.68;;;6.79;75.70
42003;BME280;27693;50.506;30.832;2023-04-22T02:00:23;99148.27;;;6.85;75.66
42003;BME280;27693;50.506;30.832;2023-04-22T02:01:25;99148.27;;;6.85;75.59
42003;BME280;27693;50.506;30.832;2023-04-22T02:02:28;99143.81;;;6.89;75.36
42003;BME280;27693;50.506;30.832;2023-04-22T02:03:31;99143.67;;;6.92;75.20
42003;BME280;27693;50.506;30.832;2023-04-22T02:04:34;99150.60;;;6.92;74.93
42003;BME280;27693;50.506;30.832;2023-04-22T02:05:39;99156.78;;;6.87;75.01
42003;BME280;27693;50.506;30.832;2023-04-22T02:06:41;99149.70;;;6.93;74.76
42003;BME280;27693;50.506;30.832;2023-04-22T02:07:44;99151.14;;;7.00;74.58
42003;BME280;27693;50.506;30.832;2023-04-22T02:08:47;99144.53;;;6.93;74.65
42003;BME280;27693;50.506;30.832;2023-04-22T02:09:50;99144.53;;;6.93;74.65
42003;BME280;27693;50.506;30.832;2023-04-22T02:10:52;99152.80;;;7.01;74.00
42003;BME280;27693;50.506;30.832;2023-04-22T02:11:55;99150.10;;;7.04;73.75
42003;BME280;27693;50.506;30.832;2023-04-22T02:12:58;99157.03;;;7.03;73.56
42003;BME280;27693;50.506;30.832;2023-04-22T02:14:00;99151.97;;;7.00;73.64
42003;BME280;27693;50.506;30.832;2023-04-22T02:15:03;99156.96;;;7.05;73.38
42003;BME280;27693;50.506;30.832;2023-04-22T02:16:06;99151.00;;;7.03;72.92
42003;BME280;27693;50.506;30.832;2023-04-22T02:17:10;99158.69;;;7.04;72.70
42003;BME280;27693;50.506;30.832;2023-04-22T02:18:14;99158.77;;;7.03;72.63
42003;BME280;27693;50.506;30.832;2023-04-22T02:19:19;99162.78;;;7.10;72.47
42003;BME280;27693;50.506;30.832;2023-04-22T02:20:21;99161.09;;;7.09;72.11
42003;BME280;27693;50.506;30.832;2023-04-22T02:21:27;99164.80;;;7.03;72.09
42003;BME280;27693;50.506;30.832;2023-04-22T02:22:31;99161.48;;;7.00;72.31
42003;BME280;27693;50.506;30.832;2023-04-22T02:23:34;99161.84;;;6.91;72.26
42003;BME280;27693;50.506;30.832;2023-04-22T02:24:37;99159.50;;;6.84;72.50
42003;BME280;27693;50.506;30.832;2023-04-22T02:25:39;99153.78;;;6.76;72.65
42003;BME280;27693;50.506;30.832;2023-04-22T02:26:42;99155.34;;;6.80;72.91
42003;BME280;27693;50.506;30.832;2023-04-22T02:27:44;99157.02;;;6.81;72.96
42003;BME280;27693;50.506;30.832;2023-04-22T02:28:47;99161.19;;;6.85;72.79
42003;BME280;27693;50.506;30.832;2023-04-22T02:29:50;99162.09;;;6.84;72.64
42003;BME280;27693;50.506;30.832;2023-04-22T02:30:52;99160.58;;;6.79;72.46
42003;BME280;27693;50.506;30.832;2023-04-22T02:31:55;99155.47;;;6.77;72.64
42003;BME280;27693;50.506;30.832;2023-04-22T02:32:57;99162.37;;;6.77;72.85
42003;BME280;27693;50.506;30.832;2023-04-22T02:34:01;99163.88;;;6.82;72.96
42003;BME280;27693;50.506;30.832;2023-04-22T02:35:04;99160.64;;;6.77;73.10
42003;BME280;27693;50.506;30.832;2023-04-22T02:36:07;99162.58;;;6.72;72.98
42003;BME280;27693;50.506;30.832;2023-04-22T02:37:09;99167.75;;;6.72;73.08
42003;BME280;27693;50.506;30.832;2023-04-22T02:38:12;99163.09;;;6.80;73.01
42003;BME280;27693;50.506;30.832;2023-04-22T02:39:17;99166.36;;;6.85;72.72
42003;BME280;27693;50.506;30.832;2023-04-22T02:40:20;99164.50;;;6.89;72.57
42003;BME280;27693;50.506;30.832;2023-04-22T02:41:22;99162.09;;;6.84;72.06
42003;BME280;27693;50.506;30.832;2023-04-22T02:42:25;99166.16;;;6.90;72.00
42003;BME280;27693;50.506;30.832;2023-04-22T02:43:27;99162.20;;;6.81;72.00
42003;BME280;27693;50.506;30.832;2023-04-22T02:44:30;99162.27;;;6.80;72.17
42003;BME280;27693;50.506;30.832;2023-04-22T02:45:32;99164.74;;;6.83;72.57
42003;BME280;27693;50.506;30.832;2023-04-22T02:46:37;99163.16;;;6.79;72.45
42003;BME280;27693;50.506;30.832;2023-04-22T02:47:41;99160.64;;;6.77;72.65
42003;BME280;27693;50.506;30.832;2023-04-22T02:48:44;99163.88;;;6.82;72.46
42003;BME280;27693;50.506;30.832;2023-04-22T02:49:47;99157.02;;;6.81;72.44
42003;BME280;27693;50.506;30.832;2023-04-22T02:50:50;99156.27;;;6.79;72.31
42003;BME280;27693;50.506;30.832;2023-04-22T02:51:52;99161.13;;;6.65;72.34
42003;BME280;27693;50.506;30.832;2023-04-22T02:52:55;99162.92;;;6.63;72.28
42003;BME280;27693;50.506;30.832;2023-04-22T02:53:57;99165.61;;;6.60;72.46
42003;BME280;27693;50.506;30.832;2023-04-22T02:55:01;99157.52;;;6.69;72.19
42003;BME280;27693;50.506;30.832;2023-04-22T02:56:04;99162.58;;;6.72;72.04
42003;BME280;27693;50.506;30.832;2023-04-22T02:57:07;99166.88;;;6.71;71.96
42003;BME280;27693;50.506;30.832;2023-04-22T02:58:10;99161.85;;;6.68;71.97
42003;BME280;27693;50.506;30.832;2023-04-22T02:59:13;99159.44;;;6.64;72.07
42003;BME280;27693;50.506;30.832;2023-04-22T03:00:16;99165.44;;;6.64;72.23
42003;BME280;27693;50.506;30.832;2023-04-22T03:01:18;99165.58;;;6.61;72.12
42003;BME280;27693;50.506;30.832;2023-04-22T03:02:22;99160.44;;;6.60;72.19
42003;BME280;27693;50.506;30.832;2023-04-22T03:03:29;99163.81;;;6.62;72.30
42003;BME280;27693;50.506;30.832;2023-04-22T03:04:33;99160.89;;;6.71;72.41
42003;BME280;27693;50.506;30.832;2023-04-22T03:05:35;99155.58;;;6.74;71.81
42003;BME280;27693;50.506;30.832;2023-04-22T03:06:38;99170.27;;;6.74;71.65
42003;BME280;27693;50.506;30.832;2023-04-22T03:07:40;99167.02;;;6.68;71.75
42003;BME280;27693;50.506;30.832;2023-04-22T03:08:43;99167.95;;;6.66;71.64
42003;BME280;27693;50.506;30.832;2023-04-22T03:09:45;99171.57;;;6.62;71.60
42003;BME280;27693;50.506;30.832;2023-04-22T03:10:48;99164.47;;;6.67;71.77
42003;BME280;27693;50.506;30.832;2023-04-22T03:11:50;99170.33;;;6.72;71.51
42003;BME280;27693;50.506;30.832;2023-04-22T03:12:53;99168.58;;;6.73;71.38
42003;BME280;27693;50.506;30.832;2023-04-22T03:13:55;99173.13;;;6.66;71.43
42003;BME280;27693;50.506;30.832;2023-04-22T03:14:58;99173.36;;;6.60;71.43
42003;BME280;27693;50.506;30.832;2023-04-22T03:16:02;99176.98;;;6.55;71.84
42003;BME280;27693;50.506;30.832;2023-04-22T03:17:06;99186.28;;;6.60;71.62
42003;BME280;27693;50.506;30.832;2023-04-22T03:18:09;99178.30;;;6.66;71.45
42003;BME280;27693;50.506;30.832;2023-04-22T03:19:12;99184.09;;;6.73;71.33
42003;BME280;27693;50.506;30.832;2023-04-22T03:20:15;99179.64;;;6.76;71.13
42003;BME280;27693;50.506;30.832;2023-04-22T03:21:18;99181.19;;;6.80;70.96
42003;BME280;27693;50.506;30.832;2023-04-22T03:22:21;99184.33;;;6.88;70.75
42003;BME280;27693;50.506;30.832;2023-04-22T03:23:24;99189.25;;;6.95;70.51
42003;BME280;27693;50.506;30.832;2023-04-22T03:24:27;99186.56;;;6.98;70.23
42003;BME280;27693;50.506;30.832;2023-04-22T03:25:29;99186.60;;;6.74;70.04
42003;BME280;27693;50.506;30.832;2023-04-22T03:26:32;99188.02;;;6.83;70.34
42003;BME280;27693;50.506;30.832;2023-04-22T03:27:35;99173.19;;;6.86;69.76
42003;BME280;27693;50.506;30.832;2023-04-22T03:28:38;99173.19;;;6.86;69.76
42003;BME280;27693;50.506;30.832;2023-04-22T03:29:40;99193.35;;;7.00;69.58
42003;BME280;27693;50.506;30.832;2023-04-22T03:30:44;99183.73;;;7.04;69.48
42003;BME280;27693;50.506;30.832;2023-04-22T03:31:46;99185.52;;;7.02;69.43
42003;BME280;27693;50.506;30.832;2023-04-22T03:32:49;99190.66;;;7.03;69.34
42003;BME280;27693;50.506;30.832;2023-04-22T03:33:55;99184.63;;;7.03;69.34
42003;BME280;27693;50.506;30.832;2023-04-22T03:35:00;99189.32;;;6.93;69.46
42003;BME280;27693;50.506;30.832;2023-04-22T03:36:04;99197.02;;;6.95;69.37
42003;BME280;27693;50.506;30.832;2023-04-22T03:37:08;99191.43;;;6.83;69.49
42003;BME280;27693;50.506;30.832;2023-04-22T03:38:11;99194.91;;;6.82;69.70
42003;BME280;27693;50.506;30.832;2023-04-22T03:39:13;99195.25;;;6.73;69.58
42003;BME280;27693;50.506;30.832;2023-04-22T03:40:18;99200.56;;;6.70;69.81
42003;BME280;27693;50.506;30.832;2023-04-22T03:41:22;99202.25;;;6.71;69.99
42003;BME280;27693;50.506;30.832;2023-04-22T03:42:27;99206.63;;;6.69;70.21
42003;BME280;27693;50.506;30.832;2023-04-22T03:43:31;99209.45;;;6.63;70.16
42003;BME280;27693;50.506;30.832;2023-04-22T03:44:39;99207.83;;;6.60;70.39
42003;BME280;27693;50.506;30.832;2023-04-22T03:45:41;99201.63;;;6.64;70.28
42003;BME280;27693;50.506;30.832;2023-04-22T03:46:46;99205.83;;;6.67;70.36
42003;BME280;27693;50.506;30.832;2023-04-22T03:47:50;99203.80;;;6.75;69.87
42003;BME280;27693;50.506;30.832;2023-04-22T03:48:54;99213.25;;;6.76;69.89
42003;BME280;27693;50.506;30.832;2023-04-22T03:49:59;99216.22;;;6.89;69.85
42003;BME280;27693;50.506;30.832;2023-04-22T03:51:02;99207.31;;;6.96;69.40
42003;BME280;27693;50.506;30.832;2023-04-22T03:52:06;99209.84;;;6.98;68.98
42003;BME280;27693;50.506;30.832;2023-04-22T03:53:10;99213.22;;;7.00;68.63
42003;BME280;27693;50.506;30.832;2023-04-22T03:54:13;99206.28;;;7.00;68.58
42003;BME280;27693;50.506;30.832;2023-04-22T03:55:18;99217.45;;;7.01;68.45
42003;BME280;27693;50.506;30.832;2023-04-22T03:56:21;99214.28;;;6.94;68.45
42003;BME280;27693;50.506;30.832;2023-04-22T03:57:26;99216.80;;;6.96;68.50
42003;BME280;27693;50.506;30.832;2023-04-22T03:58:30;99211.70;;;6.94;68.43
42003;BME280;27693;50.506;30.832;2023-04-22T03:59:33;99211.53;;;6.99;68.17
42003;BME280;27693;50.506;30.832;2023-04-22T04:00:37;99218.25;;;7.03;68.02
42003;BME280;27693;50.506;30.832;2023-04-22T04:01:41;99224.45;;;6.99;67.99
42003;BME280;27693;50.506;30.832;2023-04-22T04:02:44;99224.70;;;6.93;67.96
42003;BME280;27693;50.506;30.832;2023-04-22T04:03:49;99229.08;;;6.91;68.27
42003;BME280;27693;50.506;30.832;2023-04-22T04:04:52;99223.91;;;6.91;67.81
42003;BME280;27693;50.506;30.832;2023-04-22T04:05:56;99222.70;;;6.99;67.79
42003;BME280;27693;50.506;30.832;2023-04-22T04:06:58;99227.88;;;6.99;67.43
42003;BME280;27693;50.506;30.832;2023-04-22T04:08:01;99225.18;;;7.02;67.38
42003;BME280;27693;50.506;30.832;2023-04-22T04:09:04;99225.11;;;7.04;66.86
42003;BME280;27693;50.506;30.832;2023-04-22T04:10:08;99225.91;;;7.06;66.71
42003;BME280;27693;50.506;30.832;2023-04-22T04:11:13;99221.38;;;7.11;66.96
42003;BME280;27693;50.506;30.832;2023-04-22T04:12:16;99228.25;;;7.12;67.03
42003;BME280;27693;50.506;30.832;2023-04-22T04:13:19;99228.11;;;7.15;66.93
42003;BME280;27693;50.506;30.832;2023-04-22T04:14:23;99226.42;;;7.14;66.46
42003;BME280;27693;50.506;30.832;2023-04-22T04:15:26;99227.10;;;7.19;66.34
42003;BME280;27693;50.506;30.832;2023-04-22T04:16:29;99227.86;;;7.22;66.13
42003;BME280;27693;50.506;30.832;2023-04-22T04:17:34;99220.09;;;7.22;66.27
42003;BME280;27693;50.506;30.832;2023-04-22T04:18:37;99220.09;;;7.22;66.27
42003;BME280;27693;50.506;30.832;2023-04-22T04:19:40;99231.13;;;7.27;66.23
42003;BME280;27693;50.506;30.832;2023-04-22T04:20:43;99228.41;;;7.30;66.01
42003;BME280;27693;50.506;30.832;2023-04-22T04:21:45;99237.85;;;7.31;66.07
42003;BME280;27693;50.506;30.832;2023-04-22T04:22:48;99229.19;;;7.32;65.85
42003;BME280;27693;50.506;30.832;2023-04-22T04:23:50;99236.09;;;7.31;65.52
42003;BME280;27693;50.506;30.832;2023-04-22T04:24:55;99238.57;;;7.34;65.60
42003;BME280;27693;50.506;30.832;2023-04-22T04:25:59;99242.53;;;7.43;65.05
42003;BME280;27693;50.506;30.832;2023-04-22T04:27:08;99239.94;;;7.43;64.61
42003;BME280;27693;50.506;30.832;2023-04-22T04:28:12;99246.63;;;7.49;64.48
42003;BME280;27693;50.506;30.832;2023-04-22T04:29:15;99248.35;;;7.48;64.28
42003;BME280;27693;50.506;30.832;2023-04-22T04:30:19;99251.66;;;7.52;64.13
42003;BME280;27693;50.506;30.832;2023-04-22T04:31:24;99254.20;;;7.54;63.75
42003;BME280;27693;50.506;30.832;2023-04-22T04:32:27;99251.44;;;7.58;63.89
42003;BME280;27693;50.506;30.832;2023-04-22T04:33:30;99252.91;;;7.64;63.25
42003;BME280;27693;50.506;30.832;2023-04-22T04:34:33;99253.81;;;7.63;62.90
42003;BME280;27693;50.506;30.832;2023-04-22T04:35:36;99241.58;;;7.66;62.88
42003;BME280;27693;50.506;30.832;2023-04-22T04:36:41;99248.38;;;7.69;62.47
42003;BME280;27693;50.506;30.832;2023-04-22T04:37:45;99243.91;;;7.73;62.14
42003;BME280;27693;50.506;30.832;2023-04-22T04:38:49;99249.80;;;7.76;61.95
42003;BME280;27693;50.506;30.832;2023-04-22T04:39:54;99251.45;;;7.79;61.09
42003;BME280;27693;50.506;30.832;2023-04-22T04:40:59;99248.72;;;7.82;61.10
42003;BME280;27693;50.506;30.832;2023-04-22T04:42:03;99248.45;;;7.88;61.21
42003;BME280;27693;50.506;30.832;2023-04-22T04:43:08;99256.11;;;7.91;60.67
42003;BME280;27693;50.506;30.832;2023-04-22T04:44:12;99256.03;;;7.93;60.66
42003;BME280;27693;50.506;30.832;2023-04-22T04:45:16;99250.86;;;7.93;59.80
42003;BME280;27693;50.506;30.832;2023-04-22T04:46:19;99254.08;;;7.98;60.20
42003;BME280;27693;50.506;30.832;2023-04-22T04:47:22;99252.55;;;7.94;59.39
42003;BME280;27693;50.506;30.832;2023-04-22T04:48:26;99255.92;;;7.96;59.33
42003;BME280;27693;50.506;30.832;2023-04-22T04:49:30;99264.45;;;7.98;58.98
42003;BME280;27693;50.506;30.832;2023-04-22T04:50:34;99260.95;;;7.99;59.20
42003;BME280;27693;50.506;30.832;2023-04-22T04:51:37;99260.69;;;8.05;59.09
42003;BME280;27693;50.506;30.832;2023-04-22T04:52:40;99258.88;;;8.07;58.80
42003;BME280;27693;50.506;30.832;2023-04-22T04:53:43;99253.55;;;8.10;58.72
42003;BME280;27693;50.506;30.832;2023-04-22T04:54:45;99255.83;;;8.18;58.85
42003;BME280;27693;50.506;30.832;2023-04-22T04:55:48;99258.42;;;8.18;58.23
42003;BME280;27693;50.506;30.832;2023-04-22T04:56:52;99264.88;;;8.28;57.98
42003;BME280;27693;50.506;30.832;2023-04-22T04:57:55;99264.88;;;8.28;57.98
42003;BME280;27693;50.506;30.832;2023-04-22T04:58:57;99259.65;;;8.30;57.62
42003;BME280;27693;50.506;30.832;2023-04-22T05:00:02;99259.22;;;8.39;57.74
42003;BME280;27693;50.506;30.832;2023-04-22T05:01:05;99263.30;;;8.45;57.49
42003;BME280;27693;50.506;30.832;2023-04-22T05:02:08;99259.56;;;8.52;57.46
42003;BME280;27693;50.506;30.832;2023-04-22T05:03:11;99259.20;;;8.60;57.30
42003;BME280;27693;50.506;30.832;2023-04-22T05:04:14;99264.19;;;8.65;56.96
42003;BME280;27693;50.506;30.832;2023-04-22T05:05:17;99263.36;;;8.64;56.66
42003;BME280;27693;50.506;30.832;2023-04-22T05:06:21;99258.88;;;8.68;56.22
42003;BME280;27693;50.506;30.832;2023-04-22T05:07:25;99263.08;;;8.70;56.20
42003;BME280;27693;50.506;30.832;2023-04-22T05:08:28;99259.58;;;8.71;56.34
42003;BME280;27693;50.506;30.832;2023-04-22T05:09:32;99262.80;;;8.76;56.42
42003;BME280;27693;50.506;30.832;2023-04-22T05:10:36;99265.19;;;8.81;55.80
42003;BME280;27693;50.506;30.832;2023-04-22T05:11:39;99255.64;;;8.82;55.64
42003;BME280;27693;50.506;30.832;2023-04-22T05:12:43;99264.20;;;8.84;55.57
42003;BME280;27693;50.506;30.832;2023-04-22T05:13:50;99257.45;;;8.79;54.75
42003;BME280;27693;50.506;30.832;2023-04-22T05:14:54;99263.42;;;8.82;55.15
42003;BME280;27693;50.506;30.832;2023-04-22T05:15:56;99264.20;;;8.84;54.83
42003;BME280;27693;50.506;30.832;2023-04-22T05:17:01;99266.80;;;8.84;55.06
42003;BME280;27693;50.506;30.832;2023-04-22T05:18:04;99260.55;;;8.88;55.16
42003;BME280;27693;50.506;30.832;2023-04-22T05:19:07;99267.55;;;8.86;54.67
42003;BME280;27693;50.506;30.832;2023-04-22T05:20:10;99269.64;;;8.97;55.33
42003;BME280;27693;50.506;30.832;2023-04-22T05:21:13;99269.64;;;8.97;55.33
42003;BME280;27693;50.506;30.832;2023-04-22T05:22:19;99261.65;;;9.01;55.18
42003;BME280;27693;50.506;30.832;2023-04-22T05:23:22;99265.02;;;9.03;54.97
42003;BME280;27693;50.506;30.832;2023-04-22T05:24:26;99261.36;;;9.07;55.26
42003;BME280;27693;50.506;30.832;2023-04-22T05:25:29;99269.92;;;9.09;54.71
42003;BME280;27693;50.506;30.832;2023-04-22T05:26:34;99268.86;;;9.14;54.71
42003;BME280;27693;50.506;30.832;2023-04-22T05:27:39;99267.95;;;9.15;54.37
42003;BME280;27693;50.506;30.832;2023-04-22T05:28:44;99269.63;;;9.16;54.62
42003;BME280;27693;50.506;30.832;2023-04-22T05:29:48;99267.81;;;9.18;54.95
42003;BME280;27693;50.506;30.832;2023-04-22T05:30:51;99278.20;;;9.18;54.43
42003;BME280;27693;50.506;30.832;2023-04-22T05:31:54;99272.84;;;9.21;54.80
42003;BME280;27693;50.506;30.832;2023-04-22T05:32:57;99271.19;;;9.20;53.98
42003;BME280;27693;50.506;30.832;2023-04-22T05:34:00;99277.13;;;9.22;54.29
42003;BME280;27693;50.506;30.832;2023-04-22T05:35:03;99271.03;;;9.23;53.83